createdAt,value
2018-11-21T00:00:21.230Z,4.08
2018-11-21T00:02:50.303Z,4.12
2018-11-21T00:05:19.131Z,4.17
2018-11-21T00:07:47.904Z,4.17
2018-11-21T00:10:16.740Z,4.19
2018-11-21T00:12:53.152Z,4.10
2018-11-21T00:15:21.970Z,4.10
2018-11-21T00:17:50.747Z,4.14
2018-11-21T00:20:19.526Z,4.11
2018-11-21T00:22:48.348Z,4.06
2018-11-21T00:25:17.127Z,4.10
2018-11-21T00:27:45.941Z,4.12
2018-11-21T00:30:15.990Z,4.14
2018-11-21T00:32:44.845Z,4.14
2018-11-21T00:35:13.626Z,4.19
2018-11-21T00:37:42.402Z,4.16
2018-11-21T00:40:12.795Z,4.17
2018-11-21T00:42:46.667Z,4.20
2018-11-21T00:45:10.962Z,4.19
2018-11-21T00:47:39.905Z,4.20
2018-11-21T00:50:08.774Z,4.21
2018-11-21T00:52:37.850Z,4.24
2018-11-21T00:55:07.375Z,4.24
2018-11-21T00:57:36.175Z,4.23
2018-11-21T01:00:05.949Z,4.24
2018-11-21T01:02:34.744Z,4.21
2018-11-21T01:05:03.530Z,4.19
2018-11-21T01:07:32.319Z,4.17
2018-11-21T01:10:01.100Z,4.17
2018-11-21T01:12:29.924Z,4.14
2018-11-21T01:14:58.716Z,4.10
2018-11-21T01:17:27.498Z,4.09
2018-11-21T01:19:56.299Z,4.07
2018-11-21T01:22:25.089Z,3.97
2018-11-21T01:24:53.895Z,3.97
2018-11-21T01:27:22.671Z,3.86
2018-11-21T01:29:51.485Z,3.85
2018-11-21T01:32:20.288Z,3.83
2018-11-21T01:34:49.052Z,3.77
2018-11-21T01:37:17.851Z,3.67
2018-11-21T01:39:46.621Z,3.73
2018-11-21T01:42:15.419Z,3.75
2018-11-21T01:44:44.204Z,3.74
2018-11-21T01:47:12.998Z,3.71
2018-11-21T01:49:41.767Z,3.68
2018-11-21T01:52:10.622Z,3.74
2018-11-21T01:54:39.396Z,3.72
2018-11-21T01:57:08.175Z,3.73
2018-11-21T01:59:36.972Z,3.66
2018-11-21T02:02:05.927Z,3.60
2018-11-21T02:04:34.727Z,3.57
2018-11-21T02:07:03.516Z,3.56
2018-11-21T02:09:32.316Z,3.54
2018-11-21T02:12:01.092Z,3.56
2018-11-21T02:14:29.904Z,3.59
2018-11-21T02:16:58.688Z,3.63
2018-11-21T02:19:27.466Z,3.67
2018-11-21T02:21:56.286Z,3.68
2018-11-21T02:24:25.060Z,3.70
2018-11-21T02:26:53.856Z,3.67
2018-11-21T02:29:22.628Z,3.68
2018-11-21T02:31:51.410Z,3.73
2018-11-21T02:34:20.207Z,3.78
2018-11-21T02:36:48.981Z,3.81
2018-11-21T02:39:17.780Z,3.83
2018-11-21T02:41:46.555Z,3.85
2018-11-21T02:44:15.346Z,3.88
2018-11-21T02:46:44.123Z,3.90
2018-11-21T02:49:12.918Z,3.82
2018-11-21T02:51:41.698Z,3.73
2018-11-21T02:54:10.460Z,3.67
2018-11-21T02:57:15.540Z,3.59
2018-11-21T02:59:44.410Z,3.58
2018-11-21T03:02:13.641Z,3.58
2018-11-21T03:04:42.550Z,3.65
2018-11-21T03:07:11.326Z,3.59
2018-11-21T03:09:40.134Z,3.58
2018-11-21T03:12:09.442Z,3.63
2018-11-21T03:14:38.256Z,3.61
2018-11-21T03:17:07.148Z,3.67
2018-11-21T03:19:35.909Z,3.66
2018-11-21T03:22:04.701Z,3.70
2018-11-21T03:24:33.476Z,3.74
2018-11-21T03:27:02.251Z,3.68
2018-11-21T03:29:31.043Z,3.71
2018-11-21T03:31:59.817Z,3.74
2018-11-21T03:34:28.636Z,3.81
2018-11-21T03:36:57.402Z,3.88
2018-11-21T03:39:26.602Z,3.90
2018-11-21T03:41:55.384Z,3.96
2018-11-21T03:44:24.164Z,3.98
2018-11-21T03:46:52.960Z,4.00
2018-11-21T03:49:21.739Z,4.02
2018-11-21T03:51:50.541Z,4.02
2018-11-21T03:54:19.310Z,3.98
2018-11-21T03:56:48.087Z,3.98
2018-11-21T03:59:16.885Z,3.83
2018-11-21T04:01:45.654Z,3.81
2018-11-21T04:04:14.441Z,3.81
2018-11-21T04:06:43.211Z,3.79
2018-11-21T04:09:13.111Z,3.63
2018-11-21T04:11:41.886Z,3.55
2018-11-21T04:14:10.714Z,3.52
2018-11-21T04:16:39.492Z,3.60
2018-11-21T04:19:08.256Z,3.66
2018-11-21T04:21:37.051Z,3.70
2018-11-21T04:24:06.235Z,3.55
2018-11-21T04:26:35.023Z,3.59
2018-11-21T04:29:03.848Z,3.58
2018-11-21T04:31:32.617Z,3.58
2018-11-21T04:34:01.446Z,3.60
2018-11-21T04:36:30.228Z,3.57
2018-11-21T04:38:59.024Z,3.53
2018-11-21T04:41:27.787Z,3.51
2018-11-21T04:43:56.628Z,3.38
2018-11-21T04:46:25.400Z,3.36
2018-11-21T04:48:54.178Z,3.30
2018-11-21T04:51:22.960Z,3.23
2018-11-21T04:53:51.738Z,3.20
2018-11-21T04:56:20.532Z,3.19
2018-11-21T04:58:49.297Z,3.21
2018-11-21T05:01:18.062Z,3.15
2018-11-21T05:03:46.902Z,3.12
2018-11-21T05:06:15.677Z,3.20
2018-11-21T05:08:44.467Z,3.22
2018-11-21T05:11:13.246Z,3.22
2018-11-21T05:13:42.036Z,3.18
2018-11-21T05:16:10.803Z,3.20
2018-11-21T05:18:39.564Z,3.15
2018-11-21T05:21:08.356Z,3.16
2018-11-21T05:23:37.125Z,3.09
2018-11-21T05:26:05.928Z,3.02
2018-11-21T05:28:34.699Z,3.07
2018-11-21T05:31:03.477Z,3.00
2018-11-21T05:33:32.275Z,2.96
2018-11-21T05:36:01.043Z,2.98
2018-11-21T05:38:29.840Z,2.98
2018-11-21T05:40:58.603Z,3.04
2018-11-21T05:43:27.463Z,3.17
2018-11-21T05:45:56.223Z,3.25
2018-11-21T05:48:25.052Z,3.25
2018-11-21T05:50:54.359Z,3.16
2018-11-21T05:53:23.136Z,3.20
2018-11-21T05:55:51.923Z,3.27
2018-11-21T05:58:20.742Z,3.23
2018-11-21T06:00:49.515Z,3.29
2018-11-21T06:03:18.307Z,3.25
2018-11-21T06:05:47.214Z,3.29
2018-11-21T06:08:16.082Z,3.31
2018-11-21T06:10:44.782Z,3.39
2018-11-21T06:13:13.565Z,3.39
2018-11-21T06:15:42.337Z,3.40
2018-11-21T06:18:11.196Z,3.38
2018-11-21T06:20:39.990Z,3.42
2018-11-21T06:23:08.761Z,3.44
2018-11-21T06:25:37.546Z,3.43
2018-11-21T06:28:06.423Z,3.38
2018-11-21T06:30:35.232Z,3.47
2018-11-21T06:33:04.017Z,3.42
2018-11-21T06:35:32.810Z,3.45
2018-11-21T06:38:01.611Z,3.39
2018-11-21T06:40:30.380Z,3.48
2018-11-21T06:43:00.036Z,3.55
2018-11-21T06:45:29.630Z,3.53
2018-11-21T06:47:58.397Z,3.52
2018-11-21T06:50:27.188Z,3.53
2018-11-21T06:52:57.214Z,3.53
2018-11-21T06:55:26.123Z,3.55
2018-11-21T06:57:54.882Z,3.63
2018-11-21T07:00:23.671Z,3.66
2018-11-21T07:02:52.480Z,3.68
2018-11-21T07:05:21.252Z,3.68
2018-11-21T07:07:50.064Z,3.70
2018-11-21T07:10:18.827Z,3.60
2018-11-21T07:12:47.623Z,3.65
2018-11-21T07:15:16.392Z,3.65
2018-11-21T07:17:45.158Z,3.62
2018-11-21T07:20:14.300Z,3.61
2018-11-21T07:22:43.272Z,3.58
2018-11-21T07:25:14.764Z,3.59
2018-11-21T07:27:43.607Z,3.62
2018-11-21T07:30:14.047Z,3.67
2018-11-21T07:32:42.845Z,3.56
2018-11-21T07:35:17.559Z,3.55
2018-11-21T07:37:41.413Z,3.50
2018-11-21T07:40:12.075Z,3.58
2018-11-21T07:42:40.888Z,3.59
2018-11-21T07:45:11.288Z,3.64
2018-11-21T07:47:40.605Z,3.65
2018-11-21T07:50:12.583Z,3.67
2018-11-21T07:52:41.602Z,3.70
2018-11-21T07:55:11.235Z,3.73
2018-11-21T07:57:47.383Z,3.78
2018-11-21T08:01:11.818Z,3.79
2018-11-21T08:03:45.222Z,3.67
2018-11-21T08:06:17.294Z,3.78
2018-11-21T08:08:56.129Z,3.82
2018-11-21T08:11:49.796Z,3.90
2018-11-21T08:14:40.257Z,3.92
2018-11-21T08:17:30.809Z,3.94
2018-11-21T08:20:30.087Z,3.98
2018-11-21T08:23:26.993Z,3.98
2018-11-21T08:26:14.748Z,4.07
2018-11-21T08:28:43.550Z,4.18
2018-11-21T08:31:12.336Z,4.07
2018-11-21T08:33:41.236Z,4.12
2018-11-21T08:36:10.065Z,4.12
2018-11-21T08:38:38.846Z,4.09
2018-11-21T08:41:08.573Z,4.19
2018-11-21T08:43:37.372Z,4.25
2018-11-21T08:46:07.384Z,4.24
2018-11-21T08:48:36.165Z,4.34
2018-11-21T08:51:05.308Z,4.41
2018-11-21T08:53:34.136Z,4.40
2018-11-21T08:56:02.935Z,4.33
2018-11-21T08:58:31.748Z,4.26
2018-11-21T09:01:00.527Z,4.24
2018-11-21T09:03:29.379Z,4.20
2018-11-21T09:05:58.157Z,4.16
2018-11-21T09:08:27.238Z,4.23
2018-11-21T09:10:56.591Z,4.19
2018-11-21T09:13:25.293Z,4.27
2018-11-21T09:15:54.091Z,4.27
2018-11-21T09:18:22.884Z,4.34
2018-11-21T09:20:51.739Z,4.34
2018-11-21T09:23:20.514Z,4.33
2018-11-21T09:25:49.485Z,4.26
2018-11-21T09:28:18.297Z,4.27
2018-11-21T09:30:47.060Z,4.21
2018-11-21T09:33:15.918Z,4.13
2018-11-21T09:35:44.706Z,4.11
2018-11-21T09:38:13.546Z,4.07
2018-11-21T09:40:42.361Z,4.00
2018-11-21T09:43:11.146Z,4.06
2018-11-21T09:45:39.987Z,4.05
2018-11-21T09:48:08.770Z,4.02
2018-11-21T09:50:37.622Z,4.13
2018-11-21T09:53:06.564Z,4.18
2018-11-21T09:55:40.438Z,4.21
2018-11-21T09:58:07.230Z,4.27
2018-11-21T10:01:12.547Z,4.32
2018-11-21T10:03:41.550Z,4.28
2018-11-21T10:06:39.452Z,4.29
2018-11-21T10:09:12.105Z,4.27
2018-11-21T10:11:40.889Z,4.24
2018-11-21T10:14:09.677Z,4.14
2018-11-21T10:16:38.480Z,4.23
2018-11-21T10:19:07.290Z,4.26
2018-11-21T10:21:36.741Z,4.14
2018-11-21T10:24:05.622Z,4.16
2018-11-21T10:26:34.396Z,4.06
2018-11-21T10:29:03.213Z,4.06
2018-11-21T10:31:32.020Z,4.09
2018-11-21T10:34:00.804Z,4.00
2018-11-21T10:36:29.602Z,3.99
2018-11-21T10:38:58.402Z,3.94
2018-11-21T10:41:27.265Z,4.00
2018-11-21T10:43:56.101Z,4.04
2018-11-21T10:46:24.873Z,4.03
2018-11-21T10:48:53.683Z,4.10
2018-11-21T10:51:22.924Z,4.15
2018-11-21T10:53:51.707Z,4.17
2018-11-21T10:56:20.490Z,4.15
2018-11-21T10:58:49.293Z,4.13
2018-11-21T11:01:35.785Z,4.20
2018-11-21T11:04:11.778Z,4.18
2018-11-21T11:06:58.013Z,4.13
2018-11-21T11:09:51.385Z,4.08
2018-11-21T11:12:44.699Z,4.12
2018-11-21T11:15:44.382Z,4.12
2018-11-21T11:18:35.017Z,4.13
2018-11-21T11:21:21.641Z,4.11
2018-11-21T11:24:10.047Z,4.07
2018-11-21T11:26:57.824Z,3.97
2018-11-21T11:30:00.535Z,3.94
2018-11-21T11:32:47.902Z,3.95
2018-11-21T11:35:38.657Z,3.96
2018-11-21T11:38:25.326Z,4.07
2018-11-21T11:41:12.120Z,4.05
2018-11-21T11:44:12.045Z,4.01
2018-11-21T11:46:54.537Z,4.07
2018-11-21T11:49:48.265Z,4.05
2018-11-21T11:52:34.803Z,4.04
2018-11-21T11:55:37.427Z,4.04
2018-11-21T11:58:24.022Z,4.01
2018-11-21T12:01:10.699Z,4.00
2018-11-21T12:03:58.461Z,4.06
2018-11-21T12:06:46.295Z,4.08
2018-11-21T12:09:36.972Z,4.05
2018-11-21T12:12:39.963Z,3.99
2018-11-21T12:15:20.889Z,3.92
2018-11-21T12:18:15.145Z,3.92
2018-11-21T12:21:01.754Z,3.96
2018-11-21T12:23:54.943Z,3.93
2018-11-21T12:26:42.349Z,3.93
2018-11-21T12:29:48.313Z,3.97
2018-11-21T12:32:51.633Z,4.01
2018-11-21T12:35:38.833Z,3.83
2018-11-21T12:38:36.130Z,4.03
2018-11-21T12:41:23.352Z,3.90
2018-11-21T12:44:11.271Z,3.87
2018-11-21T12:46:57.977Z,3.95
2018-11-21T12:49:55.012Z,3.84
2018-11-21T12:52:41.799Z,3.82
2018-11-21T12:55:29.708Z,3.85
2018-11-21T12:58:29.963Z,3.86
2018-11-21T13:01:27.054Z,3.95
2018-11-21T13:04:13.535Z,3.94
2018-11-21T13:06:51.729Z,3.97
2018-11-21T13:09:38.212Z,3.87
2018-11-21T13:12:38.297Z,3.86
2018-11-21T13:15:26.271Z,3.85
2018-11-21T13:18:13.071Z,3.85
2018-11-21T13:21:03.673Z,3.87
2018-11-21T13:24:00.302Z,3.89
2018-11-21T13:27:03.226Z,3.90
2018-11-21T13:30:09.155Z,3.94
2018-11-21T13:32:57.116Z,3.93
2018-11-21T13:35:51.009Z,3.82
2018-11-21T13:38:35.868Z,3.82
2018-11-21T13:41:22.063Z,3.90
2018-11-21T13:44:04.664Z,3.96
2018-11-21T13:46:51.170Z,3.94
2018-11-21T13:49:54.383Z,3.92
2018-11-21T13:52:42.335Z,3.92
2018-11-21T13:55:11.332Z,3.94
2018-11-21T13:57:40.294Z,3.91
2018-11-21T14:00:11.485Z,3.93
2018-11-21T14:02:40.455Z,3.93
2018-11-21T14:05:11.102Z,3.97
2018-11-21T14:07:40.052Z,3.95
2018-11-21T14:10:10.952Z,3.90
2018-11-21T14:12:40.068Z,3.87
2018-11-21T14:15:09.858Z,3.72
2018-11-21T14:17:38.882Z,3.60
2018-11-21T14:20:10.530Z,3.62
2018-11-21T14:22:39.574Z,3.68
2018-11-21T14:25:10.295Z,3.73
2018-11-21T14:27:39.269Z,3.80
2018-11-21T14:30:13.175Z,3.85
2018-11-21T14:32:43.320Z,3.88
2018-11-21T14:35:13.356Z,3.88
2018-11-21T14:37:42.745Z,3.85
2018-11-21T14:40:14.303Z,3.80
2018-11-21T14:42:43.499Z,3.86
2018-11-21T14:45:16.755Z,3.86
2018-11-21T14:47:46.958Z,3.85
2018-11-21T14:50:23.892Z,3.87
2018-11-21T14:52:52.831Z,3.89
2018-11-21T14:55:21.823Z,3.89
2018-11-21T14:57:50.811Z,3.85
2018-11-21T15:00:20.726Z,3.87
2018-11-21T15:02:49.679Z,3.86
2018-11-21T15:05:18.683Z,3.86
2018-11-21T15:07:48.106Z,3.81
2018-11-21T15:10:17.061Z,3.83
2018-11-21T15:12:46.064Z,3.80
2018-11-21T15:15:16.958Z,3.83
2018-11-21T15:17:45.904Z,3.91
2018-11-21T15:20:16.349Z,3.81
2018-11-21T15:22:45.606Z,3.77
2018-11-21T15:25:16.809Z,3.74
2018-11-21T15:27:48.198Z,3.75
2018-11-21T15:30:24.454Z,3.65
2018-11-21T15:32:54.236Z,3.63
2018-11-21T15:35:23.792Z,3.54
2018-11-21T15:37:52.817Z,3.61
2018-11-21T15:40:25.721Z,3.56
2018-11-21T15:42:54.690Z,3.58
2018-11-21T15:56:04.749Z,3.55
2018-11-21T15:58:33.678Z,3.63
2018-11-21T16:01:02.646Z,3.67
2018-11-21T16:03:31.603Z,3.68
2018-11-21T16:06:00.621Z,3.73
2018-11-21T16:08:29.564Z,3.74
2018-11-21T16:10:58.515Z,3.75
2018-11-21T16:13:27.484Z,3.73
2018-11-21T16:15:56.428Z,3.76
2018-11-21T16:18:26.745Z,3.73
2018-11-21T16:20:55.709Z,3.76
2018-11-21T16:23:24.727Z,3.78
2018-11-21T16:25:53.734Z,3.74
2018-11-21T16:28:22.679Z,3.74
2018-11-21T16:30:51.670Z,3.71
2018-11-21T16:33:20.609Z,3.71
2018-11-21T16:35:49.581Z,3.60
2018-11-21T16:38:18.550Z,3.64
2018-11-21T16:40:47.525Z,3.65
2018-11-21T16:43:16.454Z,3.67
2018-11-21T16:45:47.726Z,3.72
2018-11-21T16:48:16.661Z,3.73
2018-11-21T16:50:45.600Z,3.73
2018-11-21T16:53:14.568Z,3.73
2018-11-21T16:55:43.553Z,3.70
2018-11-21T16:58:12.527Z,3.69
2018-11-21T17:00:41.476Z,3.68
2018-11-21T17:03:10.583Z,3.65
2018-11-21T17:05:39.522Z,3.67
2018-11-21T17:08:08.485Z,3.73
2018-11-21T17:10:37.449Z,3.68
2018-11-21T17:13:06.805Z,3.62
2018-11-21T17:15:36.293Z,3.68
2018-11-21T17:18:05.416Z,3.65
2018-11-21T17:20:36.410Z,3.62
2018-11-21T17:23:05.517Z,3.61
2018-11-21T17:25:36.487Z,3.61
